メインページ
METAR-TAF:

METAR-TAF

空港 :

ロングイェールビーン, ノルウェー

緯度: 78-15N, 経度: 015-28E, 海抜: 2m

現時点の気象観測

当レポートは20分前の15:20(UTC)に作成
東/南東の風 5kt
気温 -8°C
湿度 79%
気圧 1010 hPa
視程10km以上
高度4000ftの雲はほとんどない
高度5000ftの千切れ雲あり

METAR: ENSB 161520Z 12005KT 9999 FEW040 BKN050 M08/M11 Q1010 RMK WIND 1400FT 11010KT

時間: 16:40 (15:40 UTC)

予報

予報は16日の 12時(UTC)から 17日の 12時(UTC)まで有効
東/南東の風 9kt
視程10km以上
高度2000ftの雲はほとんどない
高度5000ftの雲は散在している
17日の 03時(UTC)から 17日の 06時(UTC)まで徐々に
東/南東の風 20kt
17日の 00時(UTC)から 17日の 09時(UTC)まで一時的に
視程: 4000m
高度1200ftの
小雪
17日の 09時(UTC)から 17日の 12時(UTC)まで一時的に
東/南東の風 25kt、最大35ktの突風を伴う
視程: 2000m
高度1200ftの
高い地吹雪, 小雪

TAF: ENSB 1612/1712 12009KT 9999 FEW020 SCT050 BECMG 1703/1706 12020KT TEMPO 1700/1709 4000 -SN VV012 TEMPO 1709/1712 12025G35KT 2000 BLSN -SN VV012

4,000以上の空港の気象観測と天気予報(METAR報とTAF報)

利用可能な観測所は地図上に黄色い丸と赤い丸で示す。

丸の上にカーソルを重ねると観測所名を参照できる。

次にクリックすると気象観測と天気予報を参照できる。

マップの切り替え:黒色「×」印の緑ボタンをクリックして拡大、「-」印の緑ボタンをクリックして縮小、緑色の三角印をクリックして隣りの地図に切り替え


METAR-TAF: